Time;durP1;ratioP1;P1;durP2;ratioP2;P2;SDS_P1;SDS_P2;PMS_P1;PMS_P2;Temp;Humidity;BMP_temperature;BMP_pressure;BME280_temperature;BME280_humidity;BME280_pressure;Samples;Min_cycle;Max_cycle;Signal;HPM_P1;HPM_P2
2021/03/04 00:01:17;;;;;;;519.53;75.53;;;7.40;99.90;;;;;;5034840;28;20508;-75
2021/03/04 00:03:44;;;;;;;548.80;78.90;;;7.20;99.90;;;;;;5026206;28;20299;-75
2021/03/04 00:06:10;;;;;;;682.00;78.70;;;7.10;99.90;;;;;;5013559;28;20207;-75
2021/03/04 00:08:36;;;;;;;507.10;73.33;;;7.30;99.90;;;;;;5014967;28;20253;-75
2021/03/04 00:11:04;;;;;;;746.63;80.43;;;7.40;99.90;;;;;;5015159;28;20231;-75
2021/03/04 00:13:30;;;;;;;768.87;84.70;;;7.40;99.90;;;;;;5014671;28;20199;-75
2021/03/04 00:15:56;;;;;;;488.20;73.53;;;7.60;99.90;;;;;;5014634;28;20291;-75
2021/03/04 00:18:23;;;;;;;591.93;76.30;;;7.70;99.90;;;;;;5014640;28;20754;-75
2021/03/04 00:20:51;;;;;;;462.33;73.70;;;7.80;99.90;;;;;;5014928;28;20653;-75
2021/03/04 00:23:17;;;;;;;505.23;74.33;;;7.70;99.90;;;;;;5014351;28;20196;-75
2021/03/04 00:25:44;;;;;;;603.27;78.73;;;7.70;99.90;;;;;;5014605;28;20315;-75
2021/03/04 00:28:11;;;;;;;480.13;75.47;;;7.70;99.90;;;;;;5014756;28;20253;-75
2021/03/04 00:30:37;;;;;;;425.40;72.30;;;7.80;99.90;;;;;;5014475;28;20232;-75
2021/03/04 00:33:04;;;;;;;510.97;74.00;;;7.60;99.90;;;;;;5014437;28;20230;-75
2021/03/04 00:35:30;;;;;;;423.90;73.33;;;7.60;99.90;;;;;;5017114;28;20305;-75
2021/03/04 00:37:57;;;;;;;606.10;76.33;;;7.60;99.90;;;;;;5015661;28;20603;-75
2021/03/04 00:40:23;;;;;;;508.77;72.53;;;7.50;99.90;;;;;;5014473;28;20198;-75
2021/03/04 00:42:50;;;;;;;354.57;67.13;;;7.60;99.90;;;;;;5014284;28;20293;-75
2021/03/04 00:45:19;;;;;;;333.07;66.23;;;7.70;99.90;;;;;;5015034;28;20199;-75
2021/03/04 00:47:45;;;;;;;469.20;70.10;;;7.90;99.90;;;;;;5014330;28;20206;-75
2021/03/04 00:50:13;;;;;;;394.47;71.37;;;8.10;99.90;;;;;;5014516;28;20308;-75
2021/03/04 00:52:39;;;;;;;393.53;69.37;;;8.20;99.90;;;;;;5014640;28;20208;-75
2021/03/04 00:55:07;;;;;;;397.07;72.80;;;7.90;99.90;;;;;;5014102;28;20549;-75
2021/03/04 00:57:33;;;;;;;298.87;68.63;;;7.70;99.90;;;;;;5014035;28;20250;-75
2021/03/04 01:00:00;;;;;;;595.57;76.53;;;7.80;99.90;;;;;;5014759;28;20199;-75
2021/03/04 01:02:27;;;;;;;407.30;72.10;;;7.90;99.90;;;;;;5013739;28;20201;-75
2021/03/04 01:04:53;;;;;;;427.20;74.17;;;7.80;99.90;;;;;;5013838;28;20305;-75
2021/03/04 01:07:20;;;;;;;545.00;77.47;;;7.70;99.90;;;;;;5014434;28;20289;-75
2021/03/04 01:09:46;;;;;;;398.90;73.37;;;7.70;99.90;;;;;;5013857;28;20209;-75
2021/03/04 01:12:13;;;;;;;549.70;76.83;;;7.50;99.90;;;;;;5013746;28;20226;-75
2021/03/04 01:14:39;;;;;;;299.40;68.23;;;7.30;99.90;;;;;;5013737;28;20532;-75
2021/03/04 01:17:08;;;;;;;583.43;76.87;;;7.50;99.90;;;;;;5013823;28;20201;-75
2021/03/04 01:19:35;;;;;;;321.53;67.53;;;7.60;99.90;;;;;;5013530;28;20204;-75
2021/03/04 01:22:02;;;;;;;328.70;67.03;;;7.80;99.90;;;;;;5013877;28;20221;-75
2021/03/04 01:24:28;;;;;;;578.93;76.17;;;7.90;99.90;;;;;;5012415;28;20235;-75
2021/03/04 01:26:55;;;;;;;332.00;66.07;;;8.00;99.90;;;;;;5012090;28;20208;-75
2021/03/04 01:29:21;;;;;;;246.43;62.67;;;8.00;99.90;;;;;;5012080;28;20209;-75
2021/03/04 01:31:47;;;;;;;202.07;62.70;;;7.90;99.90;;;;;;5011885;28;20323;-75
2021/03/04 01:34:14;;;;;;;262.57;63.43;;;7.90;99.90;;;;;;5012203;28;20289;-75
2021/03/04 01:36:41;;;;;;;335.87;66.57;;;7.90;99.90;;;;;;5011864;28;20217;-75
2021/03/04 01:39:08;;;;;;;473.20;68.90;;;8.00;99.90;;;;;;5013452;28;20206;-75
2021/03/04 01:41:34;;;;;;;551.43;72.33;;;8.00;99.90;;;;;;5013140;28;20243;-75
2021/03/04 01:44:00;;;;;;;332.03;65.63;;;7.90;99.90;;;;;;5013738;28;20302;-75
2021/03/04 01:46:27;;;;;;;327.20;65.67;;;7.50;99.90;;;;;;5013404;28;20295;-75
2021/03/04 01:48:53;;;;;;;382.90;64.13;;;7.50;99.90;;;;;;5013466;28;20505;-75
2021/03/04 01:51:21;;;;;;;248.00;61.47;;;7.40;99.90;;;;;;5012903;28;20218;-75
2021/03/04 01:53:48;;;;;;;286.77;63.17;;;7.30;99.90;;;;;;5012851;28;20198;-75
2021/03/04 01:56:14;;;;;;;452.87;67.13;;;7.10;99.90;;;;;;5013028;28;20206;-75
2021/03/04 01:58:40;;;;;;;337.10;64.97;;;6.90;99.90;;;;;;5013002;28;20233;-75
2021/03/04 02:01:07;;;;;;;226.47;61.17;;;6.90;99.90;;;;;;5013575;28;20217;-75
2021/03/04 02:03:33;;;;;;;236.33;60.93;;;7.10;99.90;;;;;;5012781;28;20200;-75
2021/03/04 02:06:01;;;;;;;206.37;59.40;;;7.30;99.90;;;;;;5013591;28;20202;-75
2021/03/04 02:08:32;;;;;;;224.27;62.80;;;7.30;99.90;;;;;;5013509;28;20583;-75
2021/03/04 02:11:05;;;;;;;223.17;62.43;;;7.40;99.90;;;;;;5012972;28;20294;-75
2021/03/04 02:13:36;;;;;;;280.30;63.50;;;7.50;99.90;;;;;;5012982;28;20195;-75
2021/03/04 02:16:06;;;;;;;253.63;61.07;;;7.60;99.90;;;;;;5012797;28;20644;-75
2021/03/04 02:18:36;;;;;;;319.20;63.27;;;7.70;99.90;;;;;;5012908;28;20294;-75
2021/03/04 02:21:44;;;;;;;271.67;61.03;;;7.70;99.90;;;;;;5014197;28;20204;-75
2021/03/04 02:24:36;;;;;;;219.30;58.93;;;7.80;99.90;;;;;;4936859;29;20220;-75
2021/03/04 02:27:07;;;;;;;293.73;59.87;;;7.90;99.90;;;;;;4936707;29;20208;-75
2021/03/04 02:29:39;;;;;;;437.83;62.67;;;7.90;99.90;;;;;;4993214;28;20203;-75
2021/03/04 02:32:08;;;;;;;238.20;56.43;;;7.90;99.90;;;;;;5016756;28;20219;-75
2021/03/04 02:34:35;;;;;;;261.20;53.57;;;7.80;99.90;;;;;;5016103;28;20557;-75
2021/03/04 02:37:03;;;;;;;224.03;52.47;;;7.70;99.90;;;;;;5014774;28;20203;-75
2021/03/04 02:39:31;;;;;;;179.03;53.63;;;7.90;99.90;;;;;;5015177;28;20724;-75
2021/03/04 02:42:00;;;;;;;201.73;56.03;;;7.90;99.90;;;;;;5014774;28;20197;-75
2021/03/04 02:44:27;;;;;;;186.93;55.50;;;7.80;99.90;;;;;;5014796;28;20672;-75
2021/03/04 02:46:54;;;;;;;166.17;53.30;;;7.90;99.90;;;;;;5015193;28;20203;-75
2021/03/04 02:49:22;;;;;;;260.40;55.63;;;7.70;99.90;;;;;;5015350;28;20209;-75
2021/03/04 02:51:49;;;;;;;290.10;58.77;;;7.70;99.90;;;;;;5016579;28;20308;-75
2021/03/04 02:54:17;;;;;;;281.63;58.73;;;7.40;99.90;;;;;;5016387;28;20554;-75
2021/03/04 02:56:44;;;;;;;362.43;59.83;;;7.30;99.90;;;;;;5023339;28;20281;-75
2021/03/04 02:59:11;;;;;;;326.20;60.60;;;7.30;99.90;;;;;;5035930;28;20292;-75
2021/03/04 03:01:41;;;;;;;380.97;61.30;;;7.40;99.90;;;;;;5036482;28;20290;-75
2021/03/04 03:04:08;;;;;;;371.80;62.97;;;7.30;99.90;;;;;;5035681;28;20260;-75
2021/03/04 03:06:37;;;;;;;534.07;68.60;;;7.30;99.90;;;;;;5035816;28;20197;-75
2021/03/04 03:09:04;;;;;;;436.00;64.40;;;7.20;99.90;;;;;;5035754;28;20201;-74
2021/03/04 03:11:31;;;;;;;399.50;60.00;;;7.20;99.90;;;;;;5035594;28;20317;-75
2021/03/04 03:13:59;;;;;;;319.83;59.50;;;7.10;99.90;;;;;;5035381;28;20203;-75
2021/03/04 03:16:27;;;;;;;200.40;56.00;;;7.00;99.90;;;;;;5035270;28;20703;-75
2021/03/04 03:18:54;;;;;;;219.73;57.53;;;7.10;99.90;;;;;;5035572;28;20205;-75
2021/03/04 03:21:21;;;;;;;199.40;55.27;;;7.30;99.90;;;;;;5035334;28;20230;-75
2021/03/04 03:23:48;;;;;;;312.30;60.57;;;7.30;99.90;;;;;;5035658;28;20199;-75
2021/03/04 03:26:14;;;;;;;245.47;54.40;;;7.30;99.90;;;;;;5035882;28;20243;-75
2021/03/04 03:28:41;;;;;;;335.50;57.13;;;7.20;99.90;;;;;;5035289;28;20237;-75
2021/03/04 03:31:08;;;;;;;252.63;56.33;;;7.30;99.90;;;;;;5035220;28;20218;-75
2021/03/04 03:33:35;;;;;;;193.57;51.27;;;7.40;99.90;;;;;;5033790;28;20321;-75
2021/03/04 03:36:03;;;;;;;198.10;53.83;;;7.40;99.90;;;;;;5034810;28;20317;-75
2021/03/04 03:38:30;;;;;;;180.83;54.17;;;7.30;99.90;;;;;;5035357;28;20202;-75
2021/03/04 03:40:59;;;;;;;157.73;50.57;;;7.30;99.90;;;;;;5035143;28;20280;-75
2021/03/04 03:43:27;;;;;;;187.30;50.23;;;7.40;99.90;;;;;;5035406;28;20222;-75
2021/03/04 03:45:53;;;;;;;210.17;53.03;;;7.50;99.90;;;;;;5034843;28;20208;-75
2021/03/04 03:48:23;;;;;;;216.33;51.93;;;7.40;99.90;;;;;;5034896;28;20348;-74
2021/03/04 03:50:51;;;;;;;208.57;50.37;;;7.40;99.90;;;;;;5034620;28;20231;-75
2021/03/04 03:53:19;;;;;;;213.40;51.70;;;7.40;99.90;;;;;;5034939;28;20199;-75
2021/03/04 03:55:46;;;;;;;169.50;47.20;;;7.30;99.90;;;;;;5034798;28;20230;-75
2021/03/04 03:58:14;;;;;;;187.13;48.67;;;7.10;99.90;;;;;;5034681;28;20587;-75
2021/03/04 04:00:41;;;;;;;210.57;50.93;;;7.00;99.90;;;;;;5034613;28;20206;-75
2021/03/04 04:03:10;;;;;;;181.07;50.53;;;7.00;99.90;;;;;;5023205;28;20214;-75
2021/03/04 04:05:37;;;;;;;227.53;50.13;;;7.10;99.90;;;;;;5034132;28;20207;-75
2021/03/04 04:08:04;;;;;;;185.03;51.47;;;7.10;99.90;;;;;;5034814;28;20198;-75
2021/03/04 04:10:32;;;;;;;176.33;50.97;;;6.90;99.90;;;;;;5034646;28;20204;-74
2021/03/04 04:13:00;;;;;;;176.23;50.20;;;6.70;99.90;;;;;;5034769;28;20240;-75
2021/03/04 04:15:28;;;;;;;169.20;51.57;;;6.50;99.90;;;;;;5034633;28;20195;-75
2021/03/04 04:17:57;;;;;;;181.53;54.77;;;6.40;99.90;;;;;;5034899;28;20248;-75
2021/03/04 04:20:24;;;;;;;186.33;52.90;;;6.40;99.90;;;;;;5034310;28;20217;-74
2021/03/04 04:22:52;;;;;;;176.63;53.33;;;6.20;99.90;;;;;;5034365;28;20205;-75
2021/03/04 04:25:21;;;;;;;179.43;52.43;;;6.30;99.90;;;;;;5034384;28;20198;-74
2021/03/04 04:27:49;;;;;;;197.87;54.77;;;6.30;99.90;;;;;;5034326;28;20233;-74
2021/03/04 04:30:16;;;;;;;196.40;54.13;;;6.40;99.90;;;;;;5033837;28;20659;-75
2021/03/04 04:32:42;;;;;;;188.67;53.97;;;6.40;99.90;;;;;;5034343;28;20324;-75
2021/03/04 04:35:10;;;;;;;193.87;54.57;;;6.30;99.90;;;;;;5032761;28;20210;-75
2021/03/04 04:37:36;;;;;;;186.57;54.00;;;6.30;99.90;;;;;;5032855;28;20191;-75
2021/03/04 04:40:04;;;;;;;208.57;55.63;;;6.20;99.90;;;;;;5032829;28;20199;-75
2021/03/04 04:42:30;;;;;;;198.80;56.33;;;6.30;99.90;;;;;;5032521;28;20195;-75
2021/03/04 04:44:58;;;;;;;217.17;56.13;;;6.30;99.90;;;;;;5032333;28;20199;-75
2021/03/04 04:47:24;;;;;;;211.90;56.80;;;6.40;99.90;;;;;;5032651;28;20297;-73
2021/03/04 04:49:50;;;;;;;215.47;55.73;;;6.40;99.90;;;;;;5033371;28;20208;-74
2021/03/04 04:52:17;;;;;;;225.03;56.63;;;6.30;99.90;;;;;;5033699;28;20226;-74
2021/03/04 04:54:43;;;;;;;229.27;55.23;;;6.50;99.90;;;;;;5033876;28;20266;-74
2021/03/04 04:57:11;;;;;;;262.17;59.43;;;6.50;99.90;;;;;;5032894;28;20235;-74
2021/03/04 04:59:37;;;;;;;246.37;56.70;;;6.70;99.90;;;;;;5033669;28;20199;-74
2021/03/04 05:02:04;;;;;;;291.60;59.37;;;6.60;99.90;;;;;;5033341;28;20285;-74
2021/03/04 05:04:31;;;;;;;225.73;57.63;;;6.70;99.90;;;;;;5033629;28;20339;-74
2021/03/04 05:06:57;;;;;;;243.63;55.80;;;6.70;99.90;;;;;;5033517;28;20203;-74
2021/03/04 05:09:24;;;;;;;278.83;57.93;;;6.70;99.90;;;;;;5034156;28;20195;-74
2021/03/04 05:11:50;;;;;;;273.47;56.03;;;6.80;99.90;;;;;;5033125;28;20321;-74
2021/03/04 05:14:17;;;;;;;262.37;57.77;;;6.90;99.90;;;;;;5033423;28;20276;-75
2021/03/04 05:16:43;;;;;;;331.67;58.50;;;6.90;99.90;;;;;;5033158;28;20207;-75
2021/03/04 05:19:10;;;;;;;258.27;56.77;;;6.90;99.90;;;;;;5033245;28;20217;-74
2021/03/04 05:21:37;;;;;;;339.63;77.57;;;6.80;99.90;;;;;;5032534;28;20524;-76
2021/03/04 05:24:04;;;;;;;425.90;66.17;;;6.90;99.90;;;;;;5033663;28;20198;-74
2021/03/04 05:26:30;;;;;;;440.97;64.80;;;6.90;99.90;;;;;;5033033;28;20201;-76
2021/03/04 05:28:56;;;;;;;395.20;62.67;;;7.10;99.90;;;;;;5032606;28;20201;-74
2021/03/04 05:31:23;;;;;;;408.30;61.57;;;6.90;99.90;;;;;;5032718;28;20229;-74
2021/03/04 05:33:49;;;;;;;362.57;58.70;;;6.90;99.90;;;;;;5028188;28;20225;-75
2021/03/04 05:36:16;;;;;;;397.40;59.20;;;6.80;99.90;;;;;;5030533;28;20244;-74
2021/03/04 05:38:42;;;;;;;299.07;57.30;;;6.80;99.90;;;;;;5032625;28;20206;-74
2021/03/04 05:41:09;;;;;;;318.97;57.77;;;6.90;99.90;;;;;;5032748;28;20257;-75
2021/03/04 05:43:37;;;;;;;482.13;63.77;;;7.00;99.90;;;;;;5032640;28;20198;-75
2021/03/04 05:46:05;;;;;;;338.53;58.80;;;7.00;99.90;;;;;;5032003;28;20313;-74
2021/03/04 05:48:33;;;;;;;380.00;58.43;;;7.00;99.90;;;;;;5032361;28;20737;-74
2021/03/04 05:51:02;;;;;;;471.57;62.37;;;6.80;99.90;;;;;;5032443;28;20246;-74
2021/03/04 05:53:32;;;;;;;505.27;63.37;;;6.70;99.90;;;;;;5033069;28;20248;-74
2021/03/04 05:56:00;;;;;;;313.77;57.23;;;6.70;99.90;;;;;;5031383;28;20209;-74
2021/03/04 05:58:29;;;;;;;302.53;55.57;;;6.80;99.90;;;;;;5032421;28;20260;-75
2021/03/04 06:00:58;;;;;;;655.00;67.70;;;6.80;99.90;;;;;;5032249;28;20202;-74
2021/03/04 06:03:25;;;;;;;369.47;56.93;;;6.90;99.90;;;;;;5032397;28;20207;-74
2021/03/04 06:05:52;;;;;;;335.83;55.30;;;7.00;99.90;;;;;;5032309;28;20200;-74
2021/03/04 06:08:18;;;;;;;422.17;59.37;;;7.10;99.90;;;;;;5032226;28;20187;-75
2021/03/04 06:10:50;;;;;;;460.47;60.97;;;7.30;99.90;;;;;;5033005;28;20231;-74
2021/03/04 06:13:16;;;;;;;569.25;80.65;;;7.40;99.90;;;;;;5033055;28;20446;-75
2021/03/04 06:15:43;;;;;;;349.27;61.43;;;7.50;99.90;;;;;;5031474;28;20244;-74
2021/03/04 06:18:09;;;;;;;329.07;56.40;;;7.50;99.90;;;;;;5030162;28;20211;-75
2021/03/04 06:20:37;;;;;;;393.50;58.03;;;7.50;99.90;;;;;;5030946;28;20199;-75
2021/03/04 06:23:04;;;;;;;349.53;59.00;;;7.60;99.90;;;;;;5031811;28;20201;-75
2021/03/04 06:25:30;;;;;;;440.40;61.03;;;7.70;99.90;;;;;;5033834;28;20206;-75
2021/03/04 06:27:58;;;;;;;363.13;57.77;;;7.60;99.90;;;;;;5032232;28;20285;-74
2021/03/04 06:30:25;;;;;;;383.93;58.57;;;7.60;99.90;;;;;;5031561;28;20516;-75
2021/03/04 06:32:56;;;;;;;421.43;61.43;;;7.50;99.90;;;;;;5031325;28;20230;-75
2021/03/04 06:35:29;;;;;;;427.03;57.87;;;7.10;99.90;;;;;;5031063;28;20232;-75
2021/03/04 06:37:55;;;;;;;338.67;58.00;;;7.10;99.90;;;;;;5031115;28;20222;-75
2021/03/04 06:40:26;;;;;;;437.30;57.87;;;6.90;99.90;;;;;;5031023;28;20202;-74
2021/03/04 06:42:53;;;;;;;373.20;58.27;;;6.90;99.90;;;;;;5025418;28;20203;-74
2021/03/04 06:45:30;;;;;;;373.67;56.20;;;6.90;99.90;;;;;;5012352;28;20286;-75
2021/03/04 06:48:11;;;;;;;512.27;61.43;;;6.70;99.90;;;;;;5027426;28;20190;-74
2021/03/04 06:50:39;;;;;;;350.80;56.63;;;6.60;99.90;;;;;;5031308;28;20281;-74
2021/03/04 06:53:16;;;;;;;356.40;56.13;;;6.50;99.90;;;;;;5031878;28;20690;-74
2021/03/04 06:55:53;;;;;;;486.03;57.37;;;6.60;99.90;;;;;;5030216;28;20217;-75
2021/03/04 06:58:27;;;;;;;346.50;52.97;;;6.40;99.90;;;;;;5030894;28;20200;-74
2021/03/04 07:01:11;;;;;;;458.97;56.67;;;6.40;99.90;;;;;;5031663;28;20209;-74
2021/03/04 07:03:42;;;;;;;274.97;50.50;;;6.40;99.90;;;;;;5031338;28;20240;-74
2021/03/04 07:06:10;;;;;;;374.83;54.80;;;6.40;99.90;;;;;;5031148;28;20289;-74
2021/03/04 07:08:38;;;;;;;227.90;47.67;;;6.30;99.90;;;;;;5034031;28;20199;-74
2021/03/04 07:11:06;;;;;;;216.60;46.00;;;6.40;99.90;;;;;;5039258;28;20274;-74
2021/03/04 07:13:34;;;;;;;225.70;45.10;;;6.40;99.90;;;;;;5034837;28;20202;-75
2021/03/04 07:16:09;;;;;;;215.77;45.93;;;6.50;99.90;;;;;;5034510;28;20202;-74
2021/03/04 07:18:41;;;;;;;203.43;42.77;;;6.60;99.90;;;;;;5035357;28;20198;-74
2021/03/04 07:21:10;;;;;;;216.47;44.37;;;6.70;99.90;;;;;;5035262;28;20285;-74
2021/03/04 07:23:39;;;;;;;246.53;46.03;;;6.60;99.90;;;;;;5034662;28;20195;-74
2021/03/04 07:26:06;;;;;;;278.60;47.33;;;6.50;99.90;;;;;;5034661;28;20191;-76
2021/03/04 07:28:34;;;;;;;228.03;46.93;;;6.60;99.90;;;;;;5034852;28;20198;-73
2021/03/04 07:31:02;;;;;;;260.07;45.77;;;6.50;99.90;;;;;;5034036;28;20724;-74
2021/03/04 07:33:30;;;;;;;356.87;50.27;;;6.30;99.90;;;;;;5034605;28;20240;-74
2021/03/04 07:35:57;;;;;;;412.70;52.53;;;6.30;99.90;;;;;;5033966;28;20205;-74
2021/03/04 07:38:25;;;;;;;494.43;57.50;;;6.50;99.90;;;;;;5035124;28;20198;-74
2021/03/04 07:41:07;;;;;;;723.27;67.83;;;6.60;99.90;;;;;;5034510;28;20200;-74
2021/03/04 07:43:48;;;;;;;496.33;58.57;;;6.90;99.90;;;;;;5031971;28;20306;-74
2021/03/04 07:46:30;;;;;;;424.03;57.20;;;7.10;99.90;;;;;;5033581;28;20199;-74
2021/03/04 07:48:58;;;;;;;480.73;58.77;;;7.30;99.90;;;;;;5031609;28;20295;-73
2021/03/04 07:51:25;;;;;;;596.77;63.03;;;7.40;99.90;;;;;;5034291;28;20266;-74
2021/03/04 07:53:53;;;;;;;547.47;63.83;;;7.40;99.90;;;;;;5034444;28;20196;-74
2021/03/04 07:56:24;;;;;;;556.83;63.37;;;7.40;99.90;;;;;;5034410;28;20616;-74
2021/03/04 07:58:51;;;;;;;500.17;59.27;;;7.50;99.90;;;;;;5348852;22;20652;-74
2021/03/04 08:01:18;;;;;;;433.13;55.93;;;7.50;99.90;;;;;;5034523;28;20587;-74
2021/03/04 08:03:46;;;;;;;287.83;49.03;;;7.50;99.90;;;;;;5034910;28;20196;-74
2021/03/04 08:06:13;;;;;;;321.70;49.20;;;7.40;99.90;;;;;;5034873;28;20215;-74
2021/03/04 08:08:40;;;;;;;221.87;44.27;;;7.30;99.90;;;;;;5034512;28;20337;-74
2021/03/04 08:11:07;;;;;;;229.87;44.33;;;7.30;99.90;;;;;;5035003;28;20695;-74
2021/03/04 08:13:35;;;;;;;194.73;42.70;;;7.30;99.90;;;;;;5034805;28;20281;-74
2021/03/04 08:16:01;;;;;;;207.20;43.43;;;7.30;99.90;;;;;;5034397;28;20295;-74
2021/03/04 08:18:28;;;;;;;181.70;39.70;;;7.20;99.90;;;;;;5033416;28;20195;-74
2021/03/04 08:21:02;;;;;;;196.37;41.07;;;7.10;99.90;;;;;;5034148;28;20200;-73
2021/03/04 08:23:30;;;;;;;176.57;40.67;;;7.10;99.90;;;;;;5034754;28;20289;-74
2021/03/04 08:25:57;;;;;;;206.93;47.37;;;7.10;99.90;;;;;;5014902;28;20234;-74
2021/03/04 08:28:24;;;;;;;232.10;49.60;;;6.90;99.90;;;;;;5015182;28;20269;-74
2021/03/04 08:30:51;;;;;;;270.43;45.63;;;6.90;99.90;;;;;;5034262;28;20194;-74
2021/03/04 08:33:18;;;;;;;220.50;44.47;;;6.80;99.90;;;;;;5034362;28;20197;-73
2021/03/04 08:35:46;;;;;;;209.03;43.83;;;6.80;99.90;;;;;;5034520;28;20543;-74
2021/03/04 08:38:13;;;;;;;264.07;46.20;;;6.80;99.90;;;;;;5033765;28;20207;-74
2021/03/04 08:40:43;;;;;;;207.70;44.83;;;7.00;99.90;;;;;;5033957;28;20637;-73
2021/03/04 08:43:11;;;;;;;231.47;46.67;;;6.90;99.90;;;;;;5033905;28;20286;-73
2021/03/04 08:45:38;;;;;;;231.60;45.77;;;6.90;99.90;;;;;;5034293;28;20194;-74
2021/03/04 08:48:06;;;;;;;257.50;48.00;;;6.80;99.90;;;;;;5034065;28;20255;-73
2021/03/04 08:50:38;;;;;;;234.30;46.07;;;6.70;99.90;;;;;;5034153;28;20199;-74
2021/03/04 08:53:12;;;;;;;257.20;48.93;;;6.70;99.90;;;;;;5033952;28;20728;-74
2021/03/04 08:55:47;;;;;;;249.03;48.20;;;6.50;99.90;;;;;;5033858;28;20196;-74
2021/03/04 08:58:13;;;;;;;261.07;48.33;;;6.50;99.90;;;;;;5034203;28;20224;-74
2021/03/04 09:00:40;;;;;;;253.53;46.07;;;6.40;99.90;;;;;;5033463;28;20206;-74
2021/03/04 09:03:08;;;;;;;274.50;47.30;;;6.30;99.90;;;;;;5033856;28;20281;-74
2021/03/04 09:05:35;;;;;;;260.03;45.77;;;6.40;99.90;;;;;;5033829;28;20194;-74
2021/03/04 09:08:07;;;;;;;253.53;44.83;;;6.30;99.90;;;;;;5033418;28;20194;-74
2021/03/04 09:10:46;;;;;;;222.93;41.03;;;6.40;99.90;;;;;;5033631;28;20195;-74
2021/03/04 09:13:18;;;;;;;269.03;43.80;;;6.30;99.90;;;;;;5033532;28;20701;-74
2021/03/04 09:15:48;;;;;;;241.90;41.77;;;6.40;99.90;;;;;;5033756;28;20194;-74
2021/03/04 09:18:16;;;;;;;216.63;41.53;;;6.50;99.90;;;;;;5033543;28;20194;-74
2021/03/04 09:20:43;;;;;;;204.90;42.23;;;6.40;99.90;;;;;;5033255;28;20609;-74
2021/03/04 09:23:10;;;;;;;231.97;42.47;;;6.40;99.90;;;;;;5027947;28;20226;-74
2021/03/04 09:25:36;;;;;;;239.47;41.87;;;6.40;99.90;;;;;;5013934;28;20199;-74
2021/03/04 09:28:05;;;;;;;217.80;41.27;;;6.40;99.90;;;;;;5013650;28;20207;-74
2021/03/04 09:30:33;;;;;;;217.27;42.67;;;6.30;99.90;;;;;;5013761;28;20235;-74
2021/03/04 09:33:00;;;;;;;226.97;41.40;;;6.50;99.90;;;;;;5013551;28;20676;-74
2021/03/04 09:35:26;;;;;;;210.10;39.20;;;6.50;99.90;;;;;;5013801;28;20295;-74
2021/03/04 09:37:53;;;;;;;200.70;38.13;;;6.50;99.90;;;;;;5013760;28;20226;-74
2021/03/04 09:40:23;;;;;;;182.30;36.37;;;6.60;99.90;;;;;;5013264;28;20735;-74
2021/03/04 09:42:50;;;;;;;163.90;34.40;;;6.50;99.90;;;;;;5013502;28;20204;-74
2021/03/04 09:45:17;;;;;;;153.80;32.83;;;6.60;99.90;;;;;;5013575;28;20294;-75
2021/03/04 09:47:45;;;;;;;149.43;32.40;;;6.70;99.90;;;;;;5013472;28;20199;-74
2021/03/04 09:50:21;;;;;;;134.17;30.97;;;6.70;99.90;;;;;;5020795;28;20213;-74
2021/03/04 09:52:59;;;;;;;124.77;27.90;;;6.50;99.90;;;;;;5033378;28;20216;-75
2021/03/04 09:55:26;;;;;;;118.60;26.33;;;6.40;99.90;;;;;;5033214;28;20546;-75
2021/03/04 09:57:52;;;;;;;100.30;23.97;;;6.30;99.90;;;;;;5033031;28;20198;-74
2021/03/04 10:00:23;;;;;;;106.63;24.97;;;6.30;99.90;;;;;;5032663;28;20652;-74
2021/03/04 10:02:51;;;;;;;95.00;23.37;;;6.40;99.90;;;;;;5033048;28;20194;-74
2021/03/04 10:05:19;;;;;;;94.50;22.40;;;6.40;99.90;;;;;;5032912;28;20601;-74
2021/03/04 10:07:46;;;;;;;84.73;21.20;;;6.50;99.90;;;;;;5032627;28;20569;-74
2021/03/04 10:10:15;;;;;;;86.33;23.20;;;6.50;99.90;;;;;;5032951;28;20228;-74
2021/03/04 10:12:52;;;;;;;95.67;23.27;;;6.50;99.90;;;;;;5032909;28;20334;-74
2021/03/04 10:15:30;;;;;;;92.77;22.30;;;6.50;99.90;;;;;;5033211;28;20190;-75
2021/03/04 10:17:57;;;;;;;90.57;23.17;;;6.50;99.90;;;;;;5015127;28;20252;-75
2021/03/04 10:20:24;;;;;;;77.43;20.67;;;6.40;99.90;;;;;;5012442;28;20660;-75
2021/03/04 10:22:51;;;;;;;78.50;21.57;;;6.40;99.90;;;;;;5024158;28;20209;-75
2021/03/04 10:25:18;;;;;;;84.77;23.10;;;6.40;99.90;;;;;;5032884;28;20198;-74
2021/03/04 10:27:44;;;;;;;73.57;21.53;;;6.50;99.90;;;;;;5032659;28;20237;-74
2021/03/04 10:30:13;;;;;;;79.30;22.07;;;6.50;99.90;;;;;;5032715;28;20215;-74
2021/03/04 10:32:41;;;;;;;77.80;21.60;;;6.50;99.90;;;;;;5032334;28;20226;-74
2021/03/04 10:35:09;;;;;;;74.40;21.90;;;6.40;99.90;;;;;;5032753;28;20242;-74
2021/03/04 10:37:35;;;;;;;81.77;20.90;;;6.30;99.90;;;;;;5032909;28;20289;-74
2021/03/04 10:40:03;;;;;;;74.93;21.47;;;6.30;99.90;;;;;;5032806;28;20565;-74
2021/03/04 10:42:30;;;;;;;76.53;21.20;;;6.30;99.90;;;;;;5034188;28;20190;-74
2021/03/04 10:44:59;;;;;;;71.70;19.07;;;6.40;99.90;;;;;;5036116;28;20296;-74
2021/03/04 10:47:26;;;;;;;73.13;21.27;;;6.60;99.90;;;;;;5035950;28;20556;-74
2021/03/04 10:49:53;;;;;;;72.47;21.83;;;6.60;99.90;;;;;;5035937;28;20663;-74
2021/03/04 10:52:20;;;;;;;55.97;17.17;;;6.50;99.90;;;;;;5036229;28;20219;-74
2021/03/04 10:54:46;;;;;;;57.50;17.43;;;6.50;99.90;;;;;;5036323;28;20208;-74
2021/03/04 10:57:13;;;;;;;66.50;18.80;;;6.50;99.90;;;;;;5036329;28;20289;-74
2021/03/04 10:59:39;;;;;;;65.40;16.83;;;6.50;99.90;;;;;;5035820;28;20217;-74
2021/03/04 11:02:06;;;;;;;59.33;17.00;;;6.60;99.90;;;;;;5036044;28;20202;-74
2021/03/04 11:04:32;;;;;;;64.43;16.67;;;6.70;99.90;;;;;;5035798;28;21051;-74
2021/03/04 11:07:00;;;;;;;58.93;16.47;;;6.60;99.90;;;;;;5035788;28;20566;-74
2021/03/04 11:09:26;;;;;;;66.00;17.13;;;6.70;99.90;;;;;;5035923;28;20293;-74
2021/03/04 11:11:53;;;;;;;63.23;16.77;;;6.80;99.90;;;;;;5024109;28;20222;-74
2021/03/04 11:14:19;;;;;;;51.60;15.70;;;6.90;99.90;;;;;;5015802;28;20191;-74
2021/03/04 11:16:46;;;;;;;54.53;16.03;;;6.80;99.90;;;;;;5015572;28;20199;-74
2021/03/04 11:19:12;;;;;;;50.37;16.13;;;6.90;99.90;;;;;;5022590;28;20206;-74
2021/03/04 11:21:39;;;;;;;53.63;16.03;;;7.00;99.90;;;;;;5035829;28;20196;-74
2021/03/04 11:24:08;;;;;;;52.13;14.67;;;7.10;99.90;;;;;;5036081;28;20203;-74
2021/03/04 11:26:38;;;;;;;48.50;14.63;;;7.20;99.90;;;;;;5033078;28;20202;-74
2021/03/04 11:29:05;;;;;;;46.23;14.40;;;7.10;99.90;;;;;;5034861;28;20191;-74
2021/03/04 11:31:32;;;;;;;51.93;15.50;;;7.20;99.90;;;;;;5034994;28;20299;-74
2021/03/04 11:33:58;;;;;;;51.17;14.53;;;7.20;99.90;;;;;;5035596;28;21075;-74
2021/03/04 11:36:25;;;;;;;53.70;15.00;;;7.30;99.90;;;;;;5035555;28;20196;-74
2021/03/04 11:38:51;;;;;;;48.37;13.43;;;7.30;99.90;;;;;;5031342;28;20222;-74
2021/03/04 11:41:19;;;;;;;47.80;14.50;;;7.30;99.90;;;;;;5015457;28;20624;-75
2021/03/04 11:43:45;;;;;;;41.70;13.27;;;7.20;99.90;;;;;;5015589;28;20270;-74
2021/03/04 11:46:12;;;;;;;45.50;13.97;;;7.20;99.90;;;;;;5024438;28;20203;-74
2021/03/04 11:48:38;;;;;;;45.23;13.93;;;7.10;99.90;;;;;;5034997;28;20194;-74
2021/03/04 11:51:05;;;;;;;50.17;14.17;;;7.10;99.90;;;;;;5035381;28;20305;-74
2021/03/04 11:53:31;;;;;;;42.80;14.93;;;7.20;99.90;;;;;;5033780;28;20195;-74
2021/03/04 11:55:58;;;;;;;42.30;14.67;;;7.30;99.90;;;;;;5034924;28;20233;-74
2021/03/04 11:58:26;;;;;;;61.57;16.43;;;7.30;99.90;;;;;;5035146;28;20202;-74
2021/03/04 12:00:52;;;;;;;51.67;16.43;;;7.30;99.90;;;;;;5033364;28;20224;-75
2021/03/04 12:03:19;;;;;;;54.90;17.10;;;7.20;99.90;;;;;;5034744;28;20194;-74
2021/03/04 12:05:45;;;;;;;54.53;18.50;;;7.10;99.90;;;;;;5034462;28;20234;-74
2021/03/04 12:08:12;;;;;;;61.13;19.23;;;7.00;99.90;;;;;;5034825;28;20233;-74
2021/03/04 12:10:39;;;;;;;67.00;20.73;;;6.90;99.90;;;;;;5034538;28;20592;-74
2021/03/04 12:13:05;;;;;;;72.70;21.17;;;7.00;99.90;;;;;;5034660;28;20215;-75
2021/03/04 12:15:33;;;;;;;73.97;22.87;;;7.10;99.90;;;;;;5034911;28;20293;-75
2021/03/04 12:17:59;;;;;;;86.30;24.70;;;7.20;99.90;;;;;;5034203;28;20245;-74
2021/03/04 12:20:26;;;;;;;74.40;24.77;;;7.10;99.90;;;;;;5034581;28;20225;-75
2021/03/04 12:22:52;;;;;;;89.93;27.33;;;7.00;99.90;;;;;;5034826;28;20195;-75
2021/03/04 12:25:19;;;;;;;90.20;27.50;;;7.00;99.90;;;;;;5033892;28;20238;-75
2021/03/04 12:27:46;;;;;;;79.23;28.20;;;7.00;99.90;;;;;;5034432;28;20203;-75
2021/03/04 12:30:13;;;;;;;92.57;28.80;;;7.00;99.90;;;;;;5034169;28;20221;-74
2021/03/04 12:32:40;;;;;;;84.30;26.63;;;6.90;99.90;;;;;;5033822;28;20222;-74